createdAt,value
2019-02-06T00:00:29.835Z,27.21
2019-02-06T00:01:29.840Z,27.18
2019-02-06T00:02:29.842Z,27.14
2019-02-06T00:03:29.904Z,27.13
2019-02-06T00:04:29.848Z,27.14
2019-02-06T00:05:29.852Z,27.14
2019-02-06T00:06:29.855Z,27.17
2019-02-06T00:07:29.856Z,27.18
2019-02-06T00:08:29.891Z,27.21
2019-02-06T00:09:29.865Z,27.14
2019-02-06T00:10:29.895Z,27.13
2019-02-06T00:11:29.869Z,27.17
2019-02-06T00:12:29.875Z,27.13
2019-02-06T00:13:29.905Z,27.12
2019-02-06T00:14:29.880Z,27.19
2019-02-06T00:15:29.892Z,27.18
2019-02-06T00:16:29.950Z,27.13
2019-02-06T00:17:29.961Z,27.13
2019-02-06T00:18:29.923Z,27.22
2019-02-06T00:19:29.908Z,27.10
2019-02-06T00:20:29.900Z,27.19
2019-02-06T00:21:29.905Z,27.14
2019-02-06T00:22:29.906Z,27.13
2019-02-06T00:23:29.913Z,27.10
2019-02-06T00:24:29.914Z,27.13
2019-02-06T00:25:29.916Z,27.13
2019-02-06T00:26:29.919Z,27.17
2019-02-06T00:27:29.922Z,27.10
2019-02-06T00:28:29.929Z,27.12
2019-02-06T00:29:29.929Z,27.18
2019-02-06T00:30:29.936Z,27.13
2019-02-06T00:31:29.939Z,27.17
2019-02-06T00:32:29.939Z,27.13
2019-02-06T00:33:29.942Z,27.14
2019-02-06T00:34:29.943Z,27.13
2019-02-06T00:35:29.949Z,27.13
2019-02-06T00:36:29.953Z,27.13
2019-02-06T00:37:29.955Z,27.10
2019-02-06T00:38:29.960Z,27.18
2019-02-06T00:39:29.959Z,27.14
2019-02-06T00:40:29.964Z,27.14
2019-02-06T00:41:29.967Z,27.13
2019-02-06T00:42:29.970Z,27.13
2019-02-06T00:43:29.975Z,27.09
2019-02-06T00:44:29.980Z,27.12
2019-02-06T00:45:29.980Z,27.09
2019-02-06T00:46:29.985Z,27.09
2019-02-06T00:47:29.983Z,27.18
2019-02-06T00:48:29.989Z,27.17
2019-02-06T00:49:29.994Z,27.12
2019-02-06T00:50:29.995Z,27.12
2019-02-06T00:51:29.999Z,27.13
2019-02-06T00:52:30.003Z,27.10
2019-02-06T00:53:30.006Z,27.13
2019-02-06T00:54:30.009Z,27.12
2019-02-06T00:55:30.013Z,27.13
2019-02-06T00:56:30.014Z,27.09
2019-02-06T00:57:30.020Z,27.13
2019-02-06T00:58:30.021Z,27.07
2019-02-06T00:59:30.033Z,27.13
2019-02-06T01:00:30.032Z,27.13
2019-02-06T01:01:30.040Z,27.10
2019-02-06T01:02:30.123Z,27.18
2019-02-06T01:03:30.038Z,27.13
2019-02-06T01:04:30.041Z,27.12
2019-02-06T01:05:38.077Z,27.07
2019-02-06T01:06:30.047Z,27.18
2019-02-06T01:07:30.049Z,27.18
2019-02-06T01:08:30.054Z,27.17
2019-02-06T01:09:30.061Z,27.07
2019-02-06T01:10:30.059Z,27.14
2019-02-06T01:11:30.060Z,27.17
2019-02-06T01:12:30.067Z,27.18
2019-02-06T01:13:30.070Z,27.19
2019-02-06T01:14:30.072Z,27.12
2019-02-06T01:15:30.075Z,27.13
2019-02-06T01:16:30.080Z,27.18
2019-02-06T01:17:30.083Z,27.12
2019-02-06T01:18:30.086Z,27.17
2019-02-06T01:19:30.090Z,27.14
2019-02-06T01:20:30.091Z,27.18
2019-02-06T01:21:30.095Z,27.07
2019-02-06T01:22:30.096Z,27.09
2019-02-06T01:23:30.108Z,27.18
2019-02-06T01:24:30.108Z,27.17
2019-02-06T01:25:30.110Z,27.10
2019-02-06T01:26:30.116Z,27.17
2019-02-06T01:27:30.112Z,27.09
2019-02-06T01:28:30.117Z,27.12
2019-02-06T01:29:30.120Z,27.13
2019-02-06T01:30:30.126Z,27.14
2019-02-06T01:31:30.125Z,27.17
2019-02-06T01:32:30.130Z,27.18
2019-02-06T01:33:30.133Z,27.10
2019-02-06T01:34:30.134Z,27.07
2019-02-06T01:35:30.139Z,27.13
2019-02-06T01:36:30.143Z,27.03
2019-02-06T01:37:30.145Z,27.06
2019-02-06T01:38:30.150Z,27.13
2019-02-06T01:39:30.151Z,27.10
2019-02-06T01:40:30.155Z,27.09
2019-02-06T01:41:30.157Z,27.10
2019-02-06T01:42:30.160Z,27.18
2019-02-06T01:43:30.164Z,27.04
2019-02-06T01:44:30.172Z,27.14
2019-02-06T01:45:30.171Z,27.18
2019-02-06T01:46:30.174Z,27.06
2019-02-06T01:47:30.177Z,27.12
2019-02-06T01:48:30.186Z,27.03
2019-02-06T01:49:30.189Z,27.10
2019-02-06T01:50:30.186Z,27.09
2019-02-06T01:51:30.189Z,27.10
2019-02-06T01:52:30.192Z,27.12
2019-02-06T01:53:30.196Z,27.07
2019-02-06T01:54:30.201Z,27.12
2019-02-06T01:55:30.203Z,27.06
2019-02-06T01:56:30.207Z,27.17
2019-02-06T01:57:30.210Z,27.10
2019-02-06T01:58:30.213Z,27.10
2019-02-06T01:59:30.218Z,27.04
2019-02-06T02:00:30.222Z,27.03
2019-02-06T02:01:30.221Z,27.13
2019-02-06T02:02:30.224Z,27.04
2019-02-06T02:03:30.227Z,27.12
2019-02-06T02:04:30.240Z,27.09
2019-02-06T02:05:30.234Z,27.14
2019-02-06T02:06:30.238Z,27.12
2019-02-06T02:07:30.241Z,27.13
2019-02-06T02:08:30.244Z,27.10
2019-02-06T02:09:30.248Z,27.12
2019-02-06T02:10:30.249Z,27.09
2019-02-06T02:11:30.254Z,27.10
2019-02-06T02:12:30.255Z,27.12
2019-02-06T02:13:30.259Z,27.13
2019-02-06T02:14:30.262Z,27.09
2019-02-06T02:15:30.265Z,27.09
2019-02-06T02:16:30.273Z,27.12
2019-02-06T02:17:30.273Z,27.17
2019-02-06T02:18:30.274Z,27.12
2019-02-06T02:19:30.278Z,27.10
2019-02-06T02:20:30.281Z,27.09
2019-02-06T02:21:30.286Z,27.07
2019-02-06T02:22:30.287Z,27.09
2019-02-06T02:23:30.297Z,27.09
2019-02-06T02:24:30.294Z,27.10
2019-02-06T02:25:30.299Z,27.14
2019-02-06T02:26:30.299Z,27.04
2019-02-06T02:27:30.303Z,27.02
2019-02-06T02:28:30.307Z,27.06
2019-02-06T02:29:30.310Z,27.12
2019-02-06T02:30:30.312Z,27.00
2019-02-06T02:31:30.316Z,27.07
2019-02-06T02:32:30.327Z,27.04
2019-02-06T02:33:30.323Z,27.12
2019-02-06T02:34:30.340Z,27.03
2019-02-06T02:35:30.329Z,27.07
2019-02-06T02:36:30.334Z,27.04
2019-02-06T02:37:30.335Z,27.10
2019-02-06T02:38:30.338Z,27.09
2019-02-06T02:39:30.343Z,27.06
2019-02-06T02:40:30.348Z,27.07
2019-02-06T02:41:30.349Z,27.10
2019-02-06T02:42:30.350Z,27.12
2019-02-06T02:43:30.354Z,27.14
2019-02-06T02:44:30.356Z,27.09
2019-02-06T02:45:30.361Z,27.09
2019-02-06T02:46:30.363Z,27.03
2019-02-06T02:47:30.384Z,27.09
2019-02-06T02:48:30.370Z,27.04
2019-02-06T02:49:30.376Z,27.10
2019-02-06T02:50:30.385Z,27.06
2019-02-06T02:51:30.378Z,27.09
2019-02-06T02:52:30.382Z,27.03
2019-02-06T02:53:30.386Z,27.12
2019-02-06T02:54:30.387Z,27.09
2019-02-06T02:55:30.392Z,27.09
2019-02-06T02:56:30.396Z,27.04
2019-02-06T02:57:30.398Z,27.04
2019-02-06T02:58:30.401Z,27.04
2019-02-06T02:59:30.403Z,27.03
2019-02-06T03:00:30.408Z,27.12
2019-02-06T03:01:30.419Z,27.04
2019-02-06T03:02:30.418Z,27.07
2019-02-06T03:03:30.417Z,27.03
2019-02-06T03:04:30.423Z,27.06
2019-02-06T03:05:30.423Z,27.09
2019-02-06T03:06:30.424Z,27.03
2019-02-06T03:07:30.429Z,27.12
2019-02-06T03:08:30.431Z,27.09
2019-02-06T03:09:30.439Z,27.10
2019-02-06T03:10:30.437Z,27.10
2019-02-06T03:11:30.441Z,27.09
2019-02-06T03:12:30.449Z,27.10
2019-02-06T03:13:30.449Z,27.03
2019-02-06T03:14:30.453Z,27.00
2019-02-06T03:15:30.454Z,27.00
2019-02-06T03:16:30.459Z,27.09
2019-02-06T03:17:30.461Z,27.04
2019-02-06T03:18:30.466Z,27.09
2019-02-06T03:19:30.466Z,27.09
2019-02-06T03:20:30.545Z,26.99
2019-02-06T03:21:30.490Z,27.04
2019-02-06T03:22:32.933Z,27.00
2019-02-06T03:23:30.480Z,27.03
2019-02-06T03:24:30.484Z,27.07
2019-02-06T03:25:30.496Z,27.02
2019-02-06T03:26:30.492Z,27.02
2019-02-06T03:27:30.499Z,26.99
2019-02-06T03:28:30.506Z,27.09
2019-02-06T03:29:30.497Z,27.09
2019-02-06T03:30:30.502Z,27.02
2019-02-06T03:31:30.505Z,27.09
2019-02-06T03:32:30.512Z,27.03
2019-02-06T03:33:30.513Z,27.03
2019-02-06T03:34:30.514Z,27.04
2019-02-06T03:35:30.516Z,26.99
2019-02-06T03:36:39.849Z,26.95
2019-02-06T03:37:30.527Z,27.07
2019-02-06T03:38:30.871Z,27.02
2019-02-06T03:39:30.529Z,27.02
2019-02-06T03:40:30.550Z,27.06
2019-02-06T03:41:30.536Z,27.07
2019-02-06T03:42:30.539Z,27.06
2019-02-06T03:43:30.541Z,27.00
2019-02-06T03:44:30.546Z,27.03
2019-02-06T03:45:30.548Z,27.06
2019-02-06T03:46:30.548Z,27.03
2019-02-06T03:47:30.554Z,27.04
2019-02-06T03:48:30.608Z,27.02
2019-02-06T03:49:30.562Z,27.00
2019-02-06T03:50:30.572Z,26.95
2019-02-06T03:51:30.567Z,27.02
2019-02-06T03:52:30.570Z,27.06
2019-02-06T03:53:30.573Z,27.06
2019-02-06T03:54:30.576Z,27.03
2019-02-06T03:55:30.587Z,27.02
2019-02-06T03:56:30.584Z,27.00
2019-02-06T03:57:30.590Z,27.03
2019-02-06T03:58:30.595Z,27.00
2019-02-06T03:59:30.593Z,27.02
2019-02-06T04:00:30.595Z,27.03
2019-02-06T04:01:30.598Z,27.03
2019-02-06T04:02:30.600Z,27.06
2019-02-06T04:03:30.603Z,26.99
2019-02-06T04:04:30.608Z,26.92
2019-02-06T04:05:30.610Z,26.94
2019-02-06T04:06:30.612Z,26.95
2019-02-06T04:07:30.616Z,27.03
2019-02-06T04:08:30.620Z,26.94
2019-02-06T04:09:30.622Z,27.00
2019-02-06T04:10:30.626Z,26.99
2019-02-06T04:11:30.629Z,26.92
2019-02-06T04:12:30.632Z,26.95
2019-02-06T04:13:30.645Z,26.92
2019-02-06T04:14:30.635Z,26.94
2019-02-06T04:15:30.640Z,26.92
2019-02-06T04:16:30.643Z,26.92
2019-02-06T04:17:30.650Z,26.94
2019-02-06T04:18:30.652Z,27.04
2019-02-06T04:19:30.653Z,27.00
2019-02-06T04:20:30.661Z,27.06
2019-02-06T04:21:30.659Z,26.97
2019-02-06T04:22:30.663Z,27.00
2019-02-06T04:23:30.669Z,26.99
2019-02-06T04:24:30.674Z,26.94
2019-02-06T04:25:30.673Z,27.02
2019-02-06T04:26:30.673Z,26.95
2019-02-06T04:27:30.678Z,26.91
2019-02-06T04:28:30.681Z,27.04
2019-02-06T04:29:30.684Z,27.02
2019-02-06T04:30:30.695Z,27.00
2019-02-06T04:31:30.694Z,26.92
2019-02-06T04:32:30.700Z,27.00
2019-02-06T04:33:30.706Z,27.02
2019-02-06T04:34:30.699Z,26.92
2019-02-06T04:35:30.702Z,27.00
2019-02-06T04:36:30.705Z,26.95
2019-02-06T04:37:30.709Z,27.00
2019-02-06T04:38:30.711Z,27.00
2019-02-06T04:39:30.715Z,26.95
2019-02-06T04:40:30.720Z,26.97
2019-02-06T04:41:30.720Z,26.95
2019-02-06T04:42:30.724Z,27.03
2019-02-06T04:43:30.727Z,26.97
2019-02-06T04:44:30.755Z,27.03
2019-02-06T04:45:30.752Z,26.91
2019-02-06T04:46:30.745Z,27.02
2019-02-06T04:47:30.741Z,26.95
2019-02-06T04:48:32.226Z,26.94
2019-02-06T04:49:30.745Z,27.00
2019-02-06T04:50:30.750Z,26.97
2019-02-06T04:51:30.752Z,27.04
2019-02-06T04:52:30.757Z,27.00
2019-02-06T04:53:30.756Z,26.94
2019-02-06T04:54:30.761Z,27.00
2019-02-06T04:55:30.766Z,26.99
2019-02-06T04:56:30.772Z,26.94
2019-02-06T04:57:30.773Z,27.00
2019-02-06T04:58:30.775Z,27.00
2019-02-06T04:59:30.781Z,26.95
2019-02-06T05:00:30.782Z,26.95
2019-02-06T05:01:30.791Z,26.97
2019-02-06T05:02:30.786Z,27.03
2019-02-06T05:03:30.789Z,26.94
2019-02-06T05:04:30.794Z,27.04
2019-02-06T05:05:30.796Z,26.94
2019-02-06T05:06:30.817Z,26.95
2019-02-06T05:07:30.803Z,26.97
2019-02-06T05:08:30.816Z,27.03
2019-02-06T05:09:30.808Z,27.02
2019-02-06T05:10:30.812Z,26.95
2019-02-06T05:11:30.814Z,27.03
2019-02-06T05:12:30.818Z,26.94
2019-02-06T05:13:30.872Z,26.99
2019-02-06T05:14:30.824Z,26.99
2019-02-06T05:15:30.826Z,27.00
2019-02-06T05:16:30.830Z,26.94
2019-02-06T05:17:30.833Z,26.95
2019-02-06T05:18:30.835Z,26.95
2019-02-06T05:19:30.839Z,27.00
2019-02-06T05:20:30.843Z,27.02
2019-02-06T05:21:30.848Z,26.95
2019-02-06T05:22:30.850Z,26.91
2019-02-06T05:23:30.869Z,27.00
2019-02-06T05:24:30.857Z,26.97
2019-02-06T05:25:30.858Z,26.99
2019-02-06T05:26:30.858Z,27.06
2019-02-06T05:27:30.868Z,27.04
2019-02-06T05:28:30.868Z,27.12
2019-02-06T05:29:30.871Z,26.97
2019-02-06T05:30:30.875Z,27.12
2019-02-06T05:31:30.875Z,27.10
2019-02-06T05:32:30.879Z,27.10
2019-02-06T05:33:30.882Z,27.13
2019-02-06T05:34:30.886Z,27.03
2019-02-06T05:35:30.888Z,27.12
2019-02-06T05:36:30.893Z,27.19
2019-02-06T05:37:32.412Z,27.17
2019-02-06T05:38:30.900Z,27.07
2019-02-06T05:39:30.901Z,27.13
2019-02-06T05:40:30.905Z,27.13
2019-02-06T05:41:30.909Z,27.14
2019-02-06T05:42:30.911Z,27.13
2019-02-06T05:43:30.914Z,27.17
2019-02-06T05:44:30.917Z,27.19
2019-02-06T05:45:30.919Z,27.25
2019-02-06T05:46:30.923Z,27.21
2019-02-06T05:47:30.928Z,27.21
2019-02-06T05:48:30.932Z,27.19
2019-02-06T05:49:30.932Z,27.19
2019-02-06T05:50:30.936Z,27.25
2019-02-06T05:51:30.940Z,27.19
2019-02-06T05:52:30.944Z,27.24
2019-02-06T05:53:30.946Z,27.24
2019-02-06T05:54:30.947Z,27.17
2019-02-06T05:55:30.951Z,27.22
2019-02-06T05:56:30.955Z,27.14
2019-02-06T05:57:30.960Z,27.19
2019-02-06T05:58:30.961Z,27.22
2019-02-06T05:59:30.965Z,27.19
2019-02-06T06:00:30.972Z,27.28
2019-02-06T06:01:30.971Z,27.21
2019-02-06T06:02:30.982Z,27.18
2019-02-06T06:03:31.033Z,27.19
2019-02-06T06:04:30.981Z,27.24
2019-02-06T06:05:30.984Z,27.27
2019-02-06T06:06:30.985Z,27.21
2019-02-06T06:07:30.995Z,27.22
2019-02-06T06:08:31.044Z,27.18
2019-02-06T06:09:31.002Z,27.25
2019-02-06T06:10:31.002Z,27.24
2019-02-06T06:11:31.005Z,27.22
2019-02-06T06:12:31.007Z,27.25
2019-02-06T06:13:31.011Z,27.24
2019-02-06T06:14:31.015Z,27.28
2019-02-06T06:15:31.019Z,27.24
2019-02-06T06:16:31.118Z,27.25
2019-02-06T06:17:31.031Z,27.28
2019-02-06T06:18:31.026Z,27.25
2019-02-06T06:19:31.034Z,27.25
2019-02-06T06:20:31.032Z,27.27
2019-02-06T06:21:31.035Z,27.22
2019-02-06T06:22:31.039Z,27.27
2019-02-06T06:23:31.042Z,27.22
2019-02-06T06:24:31.045Z,27.34
2019-02-06T06:25:31.049Z,27.34
2019-02-06T06:26:31.056Z,27.28
2019-02-06T06:27:31.056Z,27.28
2019-02-06T06:28:31.064Z,27.29
2019-02-06T06:29:31.060Z,27.29
2019-02-06T06:30:31.064Z,27.31
2019-02-06T06:31:31.069Z,27.31
2019-02-06T06:32:32.006Z,27.27
2019-02-06T06:33:31.074Z,27.32
2019-02-06T06:34:31.077Z,27.32
2019-02-06T06:35:31.079Z,27.32
2019-02-06T06:36:31.089Z,27.32
2019-02-06T06:37:31.102Z,27.31
2019-02-06T06:38:31.089Z,27.36
2019-02-06T06:39:31.095Z,27.31
2019-02-06T06:40:31.105Z,27.27
2019-02-06T06:41:31.102Z,27.25
2019-02-06T06:42:31.103Z,27.36
2019-02-06T06:43:31.111Z,27.19
2019-02-06T06:44:31.108Z,27.19
2019-02-06T06:45:31.115Z,27.28
2019-02-06T06:46:31.121Z,27.29
2019-02-06T06:47:31.120Z,27.24
2019-02-06T06:48:31.123Z,27.27
2019-02-06T06:49:31.127Z,27.34
2019-02-06T06:50:31.129Z,27.25
2019-02-06T06:51:31.133Z,27.24
2019-02-06T06:52:31.137Z,27.22
2019-02-06T06:53:31.138Z,27.25
2019-02-06T06:54:31.153Z,27.24
2019-02-06T06:55:31.156Z,27.19
2019-02-06T06:56:31.152Z,27.21
2019-02-06T06:57:31.152Z,27.28
2019-02-06T06:58:31.155Z,27.21
2019-02-06T06:59:31.162Z,27.27
2019-02-06T07:00:31.212Z,27.19
2019-02-06T07:01:31.240Z,27.25
2019-02-06T07:02:32.306Z,27.22
2019-02-06T07:03:31.186Z,27.24
2019-02-06T07:04:31.175Z,27.27
2019-02-06T07:05:31.176Z,27.22
2019-02-06T07:06:31.180Z,27.22
2019-02-06T07:07:31.185Z,27.24
2019-02-06T07:08:31.239Z,27.17
2019-02-06T07:09:31.194Z,27.19
2019-02-06T07:10:31.194Z,27.17
2019-02-06T07:11:31.198Z,27.14
2019-02-06T07:12:31.220Z,27.10
2019-02-06T07:13:31.203Z,27.13
2019-02-06T07:14:31.207Z,27.18
2019-02-06T07:15:31.210Z,27.17
2019-02-06T07:16:31.213Z,27.13
2019-02-06T07:17:31.217Z,27.13
2019-02-06T07:18:31.230Z,27.13
2019-02-06T07:19:31.232Z,27.17
2019-02-06T07:20:31.231Z,27.14
2019-02-06T07:21:31.233Z,27.10
2019-02-06T07:22:31.235Z,27.10
2019-02-06T07:23:31.237Z,27.18
2019-02-06T07:24:31.241Z,27.09
2019-02-06T07:25:31.242Z,27.13
2019-02-06T07:26:31.245Z,27.14
2019-02-06T07:27:31.250Z,27.17
2019-02-06T07:28:31.252Z,27.21
2019-02-06T07:29:31.256Z,27.14
2019-02-06T07:30:31.256Z,27.13
2019-02-06T07:31:31.260Z,27.14
2019-02-06T07:32:31.264Z,27.13
2019-02-06T07:33:31.271Z,27.19
2019-02-06T07:34:31.272Z,27.19
2019-02-06T07:35:31.274Z,27.17
2019-02-06T07:36:31.279Z,27.19
2019-02-06T07:37:31.281Z,27.24
2019-02-06T07:38:31.285Z,27.22
2019-02-06T07:39:31.285Z,27.21
2019-02-06T07:40:31.290Z,27.21
2019-02-06T07:41:31.295Z,27.22
2019-02-06T07:42:31.297Z,27.24
2019-02-06T07:43:31.303Z,27.28
2019-02-06T07:44:31.304Z,27.21
2019-02-06T07:45:31.307Z,27.22
2019-02-06T07:46:31.308Z,27.24
2019-02-06T07:47:31.314Z,27.24
2019-02-06T07:48:31.314Z,27.21
2019-02-06T07:49:31.321Z,27.27
2019-02-06T07:50:31.328Z,27.24
2019-02-06T07:51:31.325Z,27.27
2019-02-06T07:52:31.332Z,27.24
2019-02-06T07:53:31.333Z,27.24
2019-02-06T07:54:31.336Z,27.18
2019-02-06T07:55:31.340Z,27.32
2019-02-06T07:56:31.391Z,27.18
2019-02-06T07:57:31.346Z,27.34
2019-02-06T07:58:31.399Z,27.28
2019-02-06T07:59:31.351Z,27.31
2019-02-06T08:00:31.358Z,27.36
2019-02-06T08:01:31.365Z,27.31
2019-02-06T08:02:31.367Z,27.31
2019-02-06T08:03:31.414Z,27.37
2019-02-06T08:04:31.369Z,27.36
2019-02-06T08:05:31.385Z,27.40
2019-02-06T08:06:31.376Z,27.41
2019-02-06T08:07:31.377Z,27.34
2019-02-06T08:08:36.286Z,27.36
2019-02-06T08:09:31.387Z,27.28
2019-02-06T08:10:31.390Z,27.37
2019-02-06T08:11:31.393Z,27.32
2019-02-06T08:12:31.397Z,27.34
2019-02-06T08:13:31.400Z,27.32
2019-02-06T08:14:31.401Z,27.36
2019-02-06T08:15:31.405Z,27.40
2019-02-06T08:16:31.433Z,27.40
2019-02-06T08:17:31.412Z,27.43
2019-02-06T08:18:31.414Z,27.40
2019-02-06T08:19:31.419Z,27.41
2019-02-06T08:20:31.419Z,27.40
2019-02-06T08:21:31.427Z,27.40
2019-02-06T08:22:31.428Z,27.40
2019-02-06T08:23:31.431Z,27.41
2019-02-06T08:24:31.442Z,27.39
2019-02-06T08:25:31.439Z,27.28
2019-02-06T08:26:31.462Z,27.41
2019-02-06T08:27:31.445Z,27.37
2019-02-06T08:28:31.450Z,27.41
2019-02-06T08:29:31.452Z,27.41
2019-02-06T08:30:31.457Z,27.39
2019-02-06T08:31:31.461Z,27.40
2019-02-06T08:32:31.462Z,27.41
2019-02-06T08:33:31.515Z,27.40
2019-02-06T08:34:31.468Z,27.34
2019-02-06T08:35:31.470Z,27.39
2019-02-06T08:36:31.475Z,27.40
2019-02-06T08:37:31.477Z,27.40
2019-02-06T08:38:31.483Z,27.50
2019-02-06T08:39:31.484Z,27.41
2019-02-06T08:40:31.488Z,27.51
2019-02-06T08:41:31.507Z,27.49
2019-02-06T08:42:31.495Z,27.51
2019-02-06T08:43:31.499Z,27.55
2019-02-06T08:44:31.569Z,27.51
2019-02-06T08:45:31.507Z,27.50
2019-02-06T08:46:31.508Z,27.49
2019-02-06T08:47:31.514Z,27.57
2019-02-06T08:48:31.517Z,27.49
2019-02-06T08:49:31.520Z,27.47
2019-02-06T08:50:31.524Z,27.55
2019-02-06T08:51:31.524Z,27.51
2019-02-06T08:52:31.534Z,27.50
2019-02-06T08:53:31.534Z,27.51
2019-02-06T08:54:31.539Z,27.50
2019-02-06T08:55:31.540Z,27.51
2019-02-06T08:56:31.543Z,27.51
2019-02-06T08:57:31.548Z,27.55
2019-02-06T08:58:31.551Z,27.54
2019-02-06T08:59:31.684Z,27.51
2019-02-06T09:00:31.558Z,27.54
2019-02-06T09:01:31.558Z,27.57
2019-02-06T09:02:31.560Z,27.57
2019-02-06T09:03:31.567Z,27.55
2019-02-06T09:04:31.570Z,27.51
2019-02-06T09:05:31.624Z,27.60
2019-02-06T09:06:31.586Z,27.59
2019-02-06T09:07:31.582Z,27.69
2019-02-06T09:08:31.586Z,27.59
2019-02-06T09:09:31.655Z,27.59
2019-02-06T09:10:31.592Z,27.57
2019-02-06T09:11:31.601Z,27.55
2019-02-06T09:12:31.600Z,27.62
2019-02-06T09:13:31.604Z,27.59
2019-02-06T09:14:31.604Z,27.54
2019-02-06T09:15:31.608Z,27.63
2019-02-06T09:16:31.615Z,27.57
2019-02-06T09:17:31.673Z,27.57
2019-02-06T09:18:31.621Z,27.57
2019-02-06T09:19:31.622Z,27.62
2019-02-06T09:20:31.625Z,27.59
2019-02-06T09:21:31.629Z,27.59
2019-02-06T09:22:31.630Z,27.65
2019-02-06T09:23:31.636Z,27.65
2019-02-06T09:24:31.642Z,27.65
2019-02-06T09:25:31.648Z,27.59
2019-02-06T09:26:34.027Z,27.57
2019-02-06T09:27:31.648Z,27.63
2019-02-06T09:28:31.652Z,27.62
2019-02-06T09:29:31.662Z,27.69
2019-02-06T09:30:31.660Z,27.67
2019-02-06T09:31:31.666Z,27.62
2019-02-06T09:32:31.669Z,27.59
2019-02-06T09:33:31.771Z,27.65
2019-02-06T09:34:31.681Z,27.70
2019-02-06T09:35:31.698Z,27.70
2019-02-06T09:36:31.683Z,27.67
2019-02-06T09:37:31.689Z,27.69
2019-02-06T09:38:31.688Z,27.67
2019-02-06T09:39:31.692Z,27.72
2019-02-06T09:40:31.697Z,27.65
2019-02-06T09:41:31.700Z,27.74
2019-02-06T09:42:31.701Z,27.65
2019-02-06T09:43:31.744Z,27.65
2019-02-06T09:44:31.708Z,27.63
2019-02-06T09:45:31.710Z,27.69
2019-02-06T09:46:31.713Z,27.62
2019-02-06T09:47:31.718Z,27.65
2019-02-06T09:48:31.724Z,27.78
2019-02-06T09:49:31.728Z,27.62
2019-02-06T09:50:31.732Z,27.77
2019-02-06T09:51:31.733Z,27.65
2019-02-06T09:52:31.738Z,27.72
2019-02-06T09:53:31.741Z,27.65
2019-02-06T09:54:31.745Z,27.69
2019-02-06T09:55:31.748Z,27.70
2019-02-06T09:56:31.759Z,27.72
2019-02-06T09:57:31.754Z,27.79
2019-02-06T09:58:31.758Z,27.69
2019-02-06T09:59:31.765Z,27.70
2019-02-06T10:00:31.772Z,27.75
2019-02-06T10:01:31.771Z,27.74
2019-02-06T10:02:31.772Z,27.65
2019-02-06T10:03:31.825Z,27.72
2019-02-06T10:04:31.777Z,27.72
2019-02-06T10:05:31.785Z,27.70
2019-02-06T10:06:31.810Z,27.70
2019-02-06T10:07:31.789Z,27.66
2019-02-06T10:08:31.794Z,27.69
2019-02-06T10:09:31.797Z,27.74
2019-02-06T10:10:31.798Z,27.75
2019-02-06T10:11:31.801Z,27.74
2019-02-06T10:12:31.847Z,27.72
2019-02-06T10:13:31.812Z,27.66
2019-02-06T10:14:31.814Z,27.70
2019-02-06T10:15:31.816Z,27.75
2019-02-06T10:16:31.835Z,27.65
2019-02-06T10:17:31.831Z,27.74
2019-02-06T10:18:31.831Z,27.63
2019-02-06T10:19:31.832Z,27.67
2019-02-06T10:20:31.836Z,27.72
2019-02-06T10:21:31.851Z,27.67
2019-02-06T10:22:31.842Z,27.60
2019-02-06T10:23:31.845Z,27.60
2019-02-06T10:24:31.850Z,27.74
2019-02-06T10:25:31.853Z,27.70
2019-02-06T10:26:31.853Z,27.67
2019-02-06T10:27:31.861Z,27.74
2019-02-06T10:28:31.865Z,27.69
2019-02-06T10:29:31.867Z,27.70
2019-02-06T10:30:31.954Z,27.60
2019-02-06T10:31:32.885Z,27.60
2019-02-06T10:32:31.877Z,27.59
2019-02-06T10:33:31.883Z,27.63
2019-02-06T10:34:31.885Z,27.69
2019-02-06T10:35:31.888Z,27.65
2019-02-06T10:36:31.891Z,27.63
2019-02-06T10:37:31.896Z,27.63
2019-02-06T10:38:31.897Z,27.66
2019-02-06T10:39:34.706Z,27.67
2019-02-06T10:40:31.907Z,27.72
2019-02-06T10:41:31.970Z,27.60
2019-02-06T10:42:31.912Z,27.65
2019-02-06T10:43:35.509Z,27.59
2019-02-06T10:44:31.921Z,27.60
2019-02-06T10:45:31.922Z,27.65
2019-02-06T10:46:31.926Z,27.60
2019-02-06T10:47:31.931Z,27.67
2019-02-06T10:48:31.933Z,27.63
2019-02-06T10:49:31.939Z,27.63
2019-02-06T10:50:31.998Z,27.63
2019-02-06T10:51:31.944Z,27.67
2019-02-06T10:52:31.945Z,27.67
2019-02-06T10:53:32.007Z,27.62
2019-02-06T10:54:31.953Z,27.74
2019-02-06T10:55:31.958Z,27.67
2019-02-06T10:56:31.959Z,27.69
2019-02-06T10:57:31.965Z,27.67
2019-02-06T10:58:31.968Z,27.63
2019-02-06T10:59:31.971Z,27.66
2019-02-06T11:00:31.976Z,27.62
2019-02-06T11:01:31.993Z,27.66
2019-02-06T11:02:34.584Z,27.63
2019-02-06T11:03:31.989Z,27.72
2019-02-06T11:04:31.996Z,27.70
2019-02-06T11:05:31.995Z,27.74
2019-02-06T11:06:32.049Z,27.63
2019-02-06T11:07:31.998Z,27.63
2019-02-06T11:08:32.002Z,27.69
2019-02-06T11:09:32.005Z,27.62
2019-02-06T11:10:32.009Z,27.62
2019-02-06T11:11:32.010Z,27.65
2019-02-06T11:12:32.017Z,27.57
2019-02-06T11:13:32.021Z,27.60
2019-02-06T11:14:32.023Z,27.59
2019-02-06T11:15:32.025Z,27.55
2019-02-06T11:16:32.030Z,27.60
2019-02-06T11:17:32.031Z,27.66
2019-02-06T11:18:32.035Z,27.57
2019-02-06T11:19:32.041Z,27.59
2019-02-06T11:20:32.045Z,27.69
2019-02-06T11:21:32.049Z,27.50
2019-02-06T11:22:32.101Z,27.55
2019-02-06T11:23:32.053Z,27.67
2019-02-06T11:24:32.057Z,27.60
2019-02-06T11:25:32.065Z,27.54
2019-02-06T11:26:32.065Z,27.66
2019-02-06T11:27:32.070Z,27.50
2019-02-06T11:28:32.072Z,27.63
2019-02-06T11:29:32.075Z,27.51
2019-02-06T11:30:32.083Z,27.57
2019-02-06T11:31:32.081Z,27.54
2019-02-06T11:32:32.088Z,27.50
2019-02-06T11:33:32.090Z,27.66
2019-02-06T11:34:32.092Z,27.55
2019-02-06T11:35:32.099Z,27.65
2019-02-06T11:36:32.100Z,27.55
2019-02-06T11:37:32.104Z,27.54
2019-02-06T11:38:32.107Z,27.60
2019-02-06T11:39:32.110Z,27.55
2019-02-06T11:40:32.114Z,27.60
2019-02-06T11:41:32.137Z,27.54
2019-02-06T11:42:32.121Z,27.55
2019-02-06T11:43:32.352Z,27.55
2019-02-06T11:44:32.127Z,27.60
2019-02-06T11:45:32.136Z,27.59
2019-02-06T11:46:32.134Z,27.54
2019-02-06T11:47:32.138Z,27.60
2019-02-06T11:48:32.145Z,27.55
2019-02-06T11:49:32.145Z,27.67
2019-02-06T11:50:32.149Z,27.60
2019-02-06T11:51:32.154Z,27.69
2019-02-06T11:52:32.156Z,27.60
2019-02-06T11:53:32.159Z,27.63
2019-02-06T11:54:32.163Z,27.67
2019-02-06T11:55:32.167Z,27.69
2019-02-06T11:56:32.169Z,27.59
2019-02-06T11:57:32.173Z,27.67
2019-02-06T11:58:32.253Z,27.62
2019-02-06T11:59:32.191Z,27.60
2019-02-06T12:00:32.183Z,27.66
2019-02-06T12:01:32.186Z,27.65
2019-02-06T12:02:37.362Z,27.66
2019-02-06T12:03:32.193Z,27.70
2019-02-06T12:04:32.199Z,27.67
2019-02-06T12:05:32.201Z,27.70
2019-02-06T12:06:32.204Z,27.74
2019-02-06T12:07:32.206Z,27.69
2019-02-06T12:08:32.212Z,27.63
2019-02-06T12:09:32.215Z,27.63
2019-02-06T12:10:32.217Z,27.63
2019-02-06T12:11:32.271Z,27.67
2019-02-06T12:12:32.226Z,27.67
2019-02-06T12:13:32.229Z,27.59
2019-02-06T12:14:32.259Z,27.66
2019-02-06T12:15:32.235Z,27.59
2019-02-06T12:16:32.299Z,27.57
2019-02-06T12:17:32.244Z,27.55
2019-02-06T12:18:32.246Z,27.55
2019-02-06T12:19:32.250Z,27.63
2019-02-06T12:20:32.254Z,27.62
2019-02-06T12:21:32.256Z,27.66
2019-02-06T12:22:32.257Z,27.66
2019-02-06T12:23:32.675Z,27.59
2019-02-06T12:24:32.268Z,27.60
2019-02-06T12:25:34.394Z,27.65
2019-02-06T12:26:32.274Z,27.57
2019-02-06T12:27:32.277Z,27.65
2019-02-06T12:28:32.331Z,27.62
2019-02-06T12:29:32.285Z,27.67
2019-02-06T12:30:32.292Z,27.59
2019-02-06T12:31:32.291Z,27.63
2019-02-06T12:32:32.297Z,27.65
2019-02-06T12:33:32.296Z,27.66
2019-02-06T12:34:32.301Z,27.70
2019-02-06T12:35:32.305Z,27.74
2019-02-06T12:36:32.309Z,27.66
2019-02-06T12:37:32.311Z,27.67
2019-02-06T12:38:32.317Z,27.74
2019-02-06T12:39:32.319Z,27.70
2019-02-06T12:40:32.323Z,27.69
2019-02-06T12:41:32.333Z,27.69
2019-02-06T12:42:32.330Z,27.60
2019-02-06T12:43:32.333Z,27.67
2019-02-06T12:44:32.339Z,27.72
2019-02-06T12:45:32.341Z,27.65
2019-02-06T12:46:32.344Z,27.63
2019-02-06T12:47:32.347Z,27.60
2019-02-06T12:48:32.401Z,27.66
2019-02-06T12:49:32.354Z,27.69
2019-02-06T12:50:32.358Z,27.69
2019-02-06T12:51:32.361Z,27.70
2019-02-06T12:52:32.365Z,27.77